sensor_id;sensor_type;location;lat;lon;timestamp;temperature;humidity
18043;DHT22;9146;48.074;11.968;2022-08-19T00:00:17;17.40;99.90
18043;DHT22;9146;48.074;11.968;2022-08-19T00:02:46;17.40;99.90
18043;DHT22;9146;48.074;11.968;2022-08-19T00:05:14;17.40;99.90
18043;DHT22;9146;48.074;11.968;2022-08-19T00:07:42;17.40;99.90
18043;DHT22;9146;48.074;11.968;2022-08-19T00:10:10;17.40;99.90
18043;DHT22;9146;48.074;11.968;2022-08-19T00:12:38;17.40;99.90
18043;DHT22;9146;48.074;11.968;2022-08-19T00:15:06;17.40;99.90
18043;DHT22;9146;48.074;11.968;2022-08-19T00:17:38;17.40;99.90
18043;DHT22;9146;48.074;11.968;2022-08-19T00:20:08;17.40;99.90
18043;DHT22;9146;48.074;11.968;2022-08-19T00:22:36;17.40;99.90
18043;DHT22;9146;48.074;11.968;2022-08-19T00:25:04;17.30;99.90
18043;DHT22;9146;48.074;11.968;2022-08-19T00:27:32;17.30;99.90
18043;DHT22;9146;48.074;11.968;2022-08-19T00:29:59;17.30;99.90
18043;DHT22;9146;48.074;11.968;2022-08-19T00:32:27;17.30;99.90
18043;DHT22;9146;48.074;11.968;2022-08-19T00:34:54;17.30;99.90
18043;DHT22;9146;48.074;11.968;2022-08-19T00:37:23;17.30;99.90
18043;DHT22;9146;48.074;11.968;2022-08-19T00:39:52;17.30;99.90
18043;DHT22;9146;48.074;11.968;2022-08-19T00:42:22;17.30;99.90
18043;DHT22;9146;48.074;11.968;2022-08-19T00:44:49;17.30;99.90
18043;DHT22;9146;48.074;11.968;2022-08-19T00:47:16;17.30;99.90
18043;DHT22;9146;48.074;11.968;2022-08-19T00:49:46;17.30;99.90
18043;DHT22;9146;48.074;11.968;2022-08-19T00:52:19;17.30;99.90
18043;DHT22;9146;48.074;11.968;2022-08-19T00:54:48;17.30;99.90
18043;DHT22;9146;48.074;11.968;2022-08-19T00:57:18;17.30;99.90
18043;DHT22;9146;48.074;11.968;2022-08-19T00:59:51;17.20;99.90
18043;DHT22;9146;48.074;11.968;2022-08-19T01:02:19;17.20;99.90
18043;DHT22;9146;48.074;11.968;2022-08-19T01:04:46;17.20;99.90
18043;DHT22;9146;48.074;11.968;2022-08-19T01:07:13;17.20;99.90
18043;DHT22;9146;48.074;11.968;2022-08-19T01:09:40;17.20;99.90
18043;DHT22;9146;48.074;11.968;2022-08-19T01:12:09;17.30;99.90
18043;DHT22;9146;48.074;11.968;2022-08-19T01:14:37;17.30;99.90
18043;DHT22;9146;48.074;11.968;2022-08-19T01:17:06;17.30;99.90
18043;DHT22;9146;48.074;11.968;2022-08-19T01:19:37;17.30;99.90
18043;DHT22;9146;48.074;11.968;2022-08-19T01:22:08;17.40;99.90
18043;DHT22;9146;48.074;11.968;2022-08-19T01:24:39;17.40;99.90
18043;DHT22;9146;48.074;11.968;2022-08-19T01:27:07;17.50;99.90
18043;DHT22;9146;48.074;11.968;2022-08-19T01:29:37;17.50;99.90
18043;DHT22;9146;48.074;11.968;2022-08-19T01:32:05;17.60;99.90
18043;DHT22;9146;48.074;11.968;2022-08-19T01:34:32;17.60;99.90
18043;DHT22;9146;48.074;11.968;2022-08-19T01:36:59;17.70;99.90
18043;DHT22;9146;48.074;11.968;2022-08-19T01:39:28;17.70;99.90
18043;DHT22;9146;48.074;11.968;2022-08-19T01:41:56;17.70;99.90
18043;DHT22;9146;48.074;11.968;2022-08-19T01:44:23;17.70;99.90
18043;DHT22;9146;48.074;11.968;2022-08-19T01:46:51;17.70;99.90
18043;DHT22;9146;48.074;11.968;2022-08-19T01:49:20;17.70;99.90
18043;DHT22;9146;48.074;11.968;2022-08-19T01:51:51;17.70;99.90
18043;DHT22;9146;48.074;11.968;2022-08-19T01:54:20;17.60;99.90
18043;DHT22;9146;48.074;11.968;2022-08-19T01:56:47;17.60;99.90
18043;DHT22;9146;48.074;11.968;2022-08-19T01:59:18;17.60;99.90
18043;DHT22;9146;48.074;11.968;2022-08-19T02:01:46;17.50;99.90
18043;DHT22;9146;48.074;11.968;2022-08-19T02:04:13;17.50;99.90
18043;DHT22;9146;48.074;11.968;2022-08-19T02:06:40;17.60;99.90
18043;DHT22;9146;48.074;11.968;2022-08-19T02:09:07;17.60;99.90
18043;DHT22;9146;48.074;11.968;2022-08-19T02:11:36;17.70;99.90
18043;DHT22;9146;48.074;11.968;2022-08-19T02:14:06;17.70;99.90
18043;DHT22;9146;48.074;11.968;2022-08-19T02:16:36;17.70;99.90
18043;DHT22;9146;48.074;11.968;2022-08-19T02:19:03;17.80;99.90
18043;DHT22;9146;48.074;11.968;2022-08-19T02:21:31;17.80;99.90
18043;DHT22;9146;48.074;11.968;2022-08-19T02:23:58;17.80;99.90
18043;DHT22;9146;48.074;11.968;2022-08-19T02:26:25;17.90;99.90
18043;DHT22;9146;48.074;11.968;2022-08-19T02:28:53;17.80;99.90
18043;DHT22;9146;48.074;11.968;2022-08-19T02:31:22;17.80;99.90
18043;DHT22;9146;48.074;11.968;2022-08-19T02:33:51;17.80;99.90
18043;DHT22;9146;48.074;11.968;2022-08-19T02:36:19;17.80;99.90
18043;DHT22;9146;48.074;11.968;2022-08-19T02:38:46;17.70;99.90
18043;DHT22;9146;48.074;11.968;2022-08-19T02:41:15;17.70;99.90
18043;DHT22;9146;48.074;11.968;2022-08-19T02:43:43;17.70;99.90
18043;DHT22;9146;48.074;11.968;2022-08-19T02:46:15;17.70;99.90
18043;DHT22;9146;48.074;11.968;2022-08-19T02:48:47;17.70;99.90
18043;DHT22;9146;48.074;11.968;2022-08-19T02:51:18;17.60;99.90
18043;DHT22;9146;48.074;11.968;2022-08-19T02:53:45;17.60;99.90
18043;DHT22;9146;48.074;11.968;2022-08-19T02:56:13;17.50;99.90
18043;DHT22;9146;48.074;11.968;2022-08-19T02:58:40;17.50;99.90
18043;DHT22;9146;48.074;11.968;2022-08-19T03:01:07;17.40;99.90
18043;DHT22;9146;48.074;11.968;2022-08-19T03:03:34;17.40;99.90
18043;DHT22;9146;48.074;11.968;2022-08-19T03:06:09;17.30;99.90
18043;DHT22;9146;48.074;11.968;2022-08-19T03:08:40;17.30;99.90
18043;DHT22;9146;48.074;11.968;2022-08-19T03:11:13;17.20;99.90
18043;DHT22;9146;48.074;11.968;2022-08-19T03:13:40;17.20;99.90
18043;DHT22;9146;48.074;11.968;2022-08-19T03:16:08;17.30;99.90
18043;DHT22;9146;48.074;11.968;2022-08-19T03:18:36;17.30;99.90
18043;DHT22;9146;48.074;11.968;2022-08-19T03:21:03;17.30;99.90
18043;DHT22;9146;48.074;11.968;2022-08-19T03:23:31;17.40;99.90
18043;DHT22;9146;48.074;11.968;2022-08-19T03:26:02;17.40;99.90
18043;DHT22;9146;48.074;11.968;2022-08-19T03:28:30;17.40;99.90
18043;DHT22;9146;48.074;11.968;2022-08-19T03:30:59;17.50;99.90
18043;DHT22;9146;48.074;11.968;2022-08-19T03:33:28;17.50;99.90
18043;DHT22;9146;48.074;11.968;2022-08-19T03:36:07;17.50;99.90
18043;DHT22;9146;48.074;11.968;2022-08-19T03:38:35;17.50;99.90
18043;DHT22;9146;48.074;11.968;2022-08-19T03:41:06;17.50;99.90
18043;DHT22;9146;48.074;11.968;2022-08-19T03:43:35;17.60;99.90
18043;DHT22;9146;48.074;11.968;2022-08-19T03:46:03;17.60;99.90
18043;DHT22;9146;48.074;11.968;2022-08-19T03:48:31;17.60;99.90
18043;DHT22;9146;48.074;11.968;2022-08-19T03:50:59;17.60;99.90
18043;DHT22;9146;48.074;11.968;2022-08-19T03:53:27;17.60;99.90
18043;DHT22;9146;48.074;11.968;2022-08-19T03:55:54;17.60;99.90
18043;DHT22;9146;48.074;11.968;2022-08-19T03:58:23;17.60;99.90
18043;DHT22;9146;48.074;11.968;2022-08-19T04:00:50;17.70;99.90
18043;DHT22;9146;48.074;11.968;2022-08-19T04:03:17;17.70;99.90
18043;DHT22;9146;48.074;11.968;2022-08-19T04:05:45;17.70;99.90
18043;DHT22;9146;48.074;11.968;2022-08-19T04:08:13;17.70;99.90
18043;DHT22;9146;48.074;11.968;2022-08-19T04:10:46;17.70;99.90
18043;DHT22;9146;48.074;11.968;2022-08-19T04:13:13;17.70;99.90
18043;DHT22;9146;48.074;11.968;2022-08-19T04:15:43;17.70;99.90
18043;DHT22;9146;48.074;11.968;2022-08-19T04:18:12;17.70;99.90
18043;DHT22;9146;48.074;11.968;2022-08-19T04:20:41;17.70;99.90
18043;DHT22;9146;48.074;11.968;2022-08-19T04:23:08;17.70;99.90
18043;DHT22;9146;48.074;11.968;2022-08-19T04:25:37;17.70;99.90
18043;DHT22;9146;48.074;11.968;2022-08-19T04:28:04;17.80;99.90
18043;DHT22;9146;48.074;11.968;2022-08-19T04:30:36;17.80;99.90
18043;DHT22;9146;48.074;11.968;2022-08-19T04:33:05;17.80;99.90
18043;DHT22;9146;48.074;11.968;2022-08-19T04:35:36;17.80;99.90
18043;DHT22;9146;48.074;11.968;2022-08-19T04:38:03;17.90;99.90
18043;DHT22;9146;48.074;11.968;2022-08-19T04:40:31;17.90;99.90
18043;DHT22;9146;48.074;11.968;2022-08-19T04:43:15;17.90;99.90
18043;DHT22;9146;48.074;11.968;2022-08-19T04:45:42;17.90;99.90
18043;DHT22;9146;48.074;11.968;2022-08-19T04:48:11;17.90;99.90
18043;DHT22;9146;48.074;11.968;2022-08-19T04:50:41;18.00;99.90
18043;DHT22;9146;48.074;11.968;2022-08-19T04:53:09;18.00;99.90
18043;DHT22;9146;48.074;11.968;2022-08-19T04:55:39;17.90;99.90
18043;DHT22;9146;48.074;11.968;2022-08-19T04:58:07;17.90;99.90
18043;DHT22;9146;48.074;11.968;2022-08-19T05:00:33;17.90;99.90
18043;DHT22;9146;48.074;11.968;2022-08-19T05:03:00;18.00;99.90
18043;DHT22;9146;48.074;11.968;2022-08-19T05:05:29;18.00;99.90
18043;DHT22;9146;48.074;11.968;2022-08-19T05:07:57;18.00;99.90
18043;DHT22;9146;48.074;11.968;2022-08-19T05:10:24;18.00;99.90
18043;DHT22;9146;48.074;11.968;2022-08-19T05:12:51;18.10;99.90
18043;DHT22;9146;48.074;11.968;2022-08-19T05:15:18;18.10;99.90
18043;DHT22;9146;48.074;11.968;2022-08-19T05:17:45;18.20;99.90
18043;DHT22;9146;48.074;11.968;2022-08-19T05:20:26;18.20;99.90
18043;DHT22;9146;48.074;11.968;2022-08-19T05:23:12;18.20;99.90
18043;DHT22;9146;48.074;11.968;2022-08-19T05:25:41;18.30;99.90
18043;DHT22;9146;48.074;11.968;2022-08-19T05:28:08;18.20;99.90
18043;DHT22;9146;48.074;11.968;2022-08-19T05:30:35;18.30;99.90
18043;DHT22;9146;48.074;11.968;2022-08-19T05:33:02;18.30;99.90
18043;DHT22;9146;48.074;11.968;2022-08-19T05:35:29;18.20;99.90
18043;DHT22;9146;48.074;11.968;2022-08-19T05:37:56;18.20;99.90
18043;DHT22;9146;48.074;11.968;2022-08-19T05:40:25;18.10;99.90
18043;DHT22;9146;48.074;11.968;2022-08-19T05:42:52;18.00;99.90
18043;DHT22;9146;48.074;11.968;2022-08-19T05:45:19;18.00;99.90
18043;DHT22;9146;48.074;11.968;2022-08-19T05:47:47;17.90;99.90
18043;DHT22;9146;48.074;11.968;2022-08-19T05:50:14;17.80;99.90
18043;DHT22;9146;48.074;11.968;2022-08-19T05:52:43;17.80;99.90
18043;DHT22;9146;48.074;11.968;2022-08-19T05:55:10;17.70;99.90
18043;DHT22;9146;48.074;11.968;2022-08-19T05:57:39;17.70;99.90
18043;DHT22;9146;48.074;11.968;2022-08-19T06:00:07;17.60;99.90
18043;DHT22;9146;48.074;11.968;2022-08-19T06:02:36;17.60;99.90
18043;DHT22;9146;48.074;11.968;2022-08-19T06:05:04;17.60;99.90
18043;DHT22;9146;48.074;11.968;2022-08-19T06:07:34;17.50;99.90
18043;DHT22;9146;48.074;11.968;2022-08-19T06:10:02;17.50;99.90
18043;DHT22;9146;48.074;11.968;2022-08-19T06:12:30;17.50;99.90
18043;DHT22;9146;48.074;11.968;2022-08-19T06:15:02;17.50;99.90
18043;DHT22;9146;48.074;11.968;2022-08-19T06:17:30;17.40;99.90
18043;DHT22;9146;48.074;11.968;2022-08-19T06:19:57;17.50;99.90
18043;DHT22;9146;48.074;11.968;2022-08-19T06:22:24;17.50;99.90
18043;DHT22;9146;48.074;11.968;2022-08-19T06:24:51;17.50;99.90
18043;DHT22;9146;48.074;11.968;2022-08-19T06:27:19;17.50;99.90
18043;DHT22;9146;48.074;11.968;2022-08-19T06:29:46;17.50;99.90
18043;DHT22;9146;48.074;11.968;2022-08-19T06:32:17;17.50;99.90
18043;DHT22;9146;48.074;11.968;2022-08-19T06:34:44;17.50;99.90
18043;DHT22;9146;48.074;11.968;2022-08-19T06:37:11;17.60;99.90
18043;DHT22;9146;48.074;11.968;2022-08-19T06:39:40;17.60;99.90
18043;DHT22;9146;48.074;11.968;2022-08-19T06:42:09;17.70;99.90
18043;DHT22;9146;48.074;11.968;2022-08-19T06:44:40;17.70;99.90
18043;DHT22;9146;48.074;11.968;2022-08-19T06:47:10;17.70;99.90
18043;DHT22;9146;48.074;11.968;2022-08-19T06:49:38;17.80;99.90
18043;DHT22;9146;48.074;11.968;2022-08-19T06:52:06;17.90;99.90
18043;DHT22;9146;48.074;11.968;2022-08-19T06:54:36;17.90;99.90
18043;DHT22;9146;48.074;11.968;2022-08-19T06:57:06;17.90;99.90
18043;DHT22;9146;48.074;11.968;2022-08-19T06:59:35;18.00;99.90
18043;DHT22;9146;48.074;11.968;2022-08-19T07:02:04;18.00;99.90
18043;DHT22;9146;48.074;11.968;2022-08-19T07:04:33;18.00;99.90
18043;DHT22;9146;48.074;11.968;2022-08-19T07:07:05;18.00;99.90
18043;DHT22;9146;48.074;11.968;2022-08-19T07:09:34;18.10;99.90
18043;DHT22;9146;48.074;11.968;2022-08-19T07:12:05;18.10;99.90
18043;DHT22;9146;48.074;11.968;2022-08-19T07:14:34;18.20;99.90
18043;DHT22;9146;48.074;11.968;2022-08-19T07:17:04;18.30;99.90
18043;DHT22;9146;48.074;11.968;2022-08-19T07:19:32;18.40;99.90
18043;DHT22;9146;48.074;11.968;2022-08-19T07:22:03;18.50;99.90
18043;DHT22;9146;48.074;11.968;2022-08-19T07:24:32;18.50;99.90
18043;DHT22;9146;48.074;11.968;2022-08-19T07:27:01;18.60;99.90
18043;DHT22;9146;48.074;11.968;2022-08-19T07:29:31;18.60;99.90
18043;DHT22;9146;48.074;11.968;2022-08-19T07:32:00;18.60;99.90
18043;DHT22;9146;48.074;11.968;2022-08-19T07:34:29;18.80;99.90
18043;DHT22;9146;48.074;11.968;2022-08-19T07:36:58;18.80;99.90
18043;DHT22;9146;48.074;11.968;2022-08-19T07:39:30;18.90;99.90
18043;DHT22;9146;48.074;11.968;2022-08-19T07:42:00;18.90;99.90
18043;DHT22;9146;48.074;11.968;2022-08-19T07:44:28;19.00;99.90
18043;DHT22;9146;48.074;11.968;2022-08-19T07:46:56;19.10;99.90
18043;DHT22;9146;48.074;11.968;2022-08-19T07:49:26;19.20;99.90
18043;DHT22;9146;48.074;11.968;2022-08-19T07:51:54;19.20;99.90
18043;DHT22;9146;48.074;11.968;2022-08-19T07:54:25;19.20;99.90
18043;DHT22;9146;48.074;11.968;2022-08-19T07:56:54;19.30;99.90
18043;DHT22;9146;48.074;11.968;2022-08-19T07:59:22;19.30;99.90
18043;DHT22;9146;48.074;11.968;2022-08-19T08:01:50;19.50;99.90
18043;DHT22;9146;48.074;11.968;2022-08-19T08:04:18;19.60;99.90
18043;DHT22;9146;48.074;11.968;2022-08-19T08:07:03;19.80;99.90
18043;DHT22;9146;48.074;11.968;2022-08-19T08:09:48;20.00;99.90
18043;DHT22;9146;48.074;11.968;2022-08-19T08:12:19;20.00;99.90
18043;DHT22;9146;48.074;11.968;2022-08-19T08:14:51;19.90;99.90
18043;DHT22;9146;48.074;11.968;2022-08-19T08:17:21;19.70;99.90
18043;DHT22;9146;48.074;11.968;2022-08-19T08:19:50;19.60;99.90
18043;DHT22;9146;48.074;11.968;2022-08-19T08:22:19;19.50;99.90
18043;DHT22;9146;48.074;11.968;2022-08-19T08:25:12;19.50;99.90
18043;DHT22;9146;48.074;11.968;2022-08-19T08:27:43;19.40;99.90
18043;DHT22;9146;48.074;11.968;2022-08-19T08:30:13;19.40;99.90
18043;DHT22;9146;48.074;11.968;2022-08-19T08:32:41;19.30;99.90
18043;DHT22;9146;48.074;11.968;2022-08-19T08:35:11;19.30;99.90
18043;DHT22;9146;48.074;11.968;2022-08-19T08:37:40;19.20;99.90
18043;DHT22;9146;48.074;11.968;2022-08-19T08:40:20;19.20;99.90
18043;DHT22;9146;48.074;11.968;2022-08-19T08:42:54;19.10;99.90
18043;DHT22;9146;48.074;11.968;2022-08-19T08:45:27;19.10;99.90
18043;DHT22;9146;48.074;11.968;2022-08-19T08:47:57;19.00;99.90
18043;DHT22;9146;48.074;11.968;2022-08-19T08:50:33;19.00;99.90
18043;DHT22;9146;48.074;11.968;2022-08-19T08:53:06;19.00;99.90
18043;DHT22;9146;48.074;11.968;2022-08-19T08:55:34;18.90;99.90
18043;DHT22;9146;48.074;11.968;2022-08-19T08:58:05;18.80;99.90
18043;DHT22;9146;48.074;11.968;2022-08-19T09:00:36;18.70;99.90
18043;DHT22;9146;48.074;11.968;2022-08-19T09:03:16;18.60;99.90
18043;DHT22;9146;48.074;11.968;2022-08-19T09:05:52;18.50;99.90
18043;DHT22;9146;48.074;11.968;2022-08-19T09:08:32;18.40;99.90
18043;DHT22;9146;48.074;11.968;2022-08-19T09:11:07;18.40;99.90
18043;DHT22;9146;48.074;11.968;2022-08-19T09:13:44;18.40;99.90
18043;DHT22;9146;48.074;11.968;2022-08-19T09:16:16;18.40;99.90
18043;DHT22;9146;48.074;11.968;2022-08-19T09:18:45;18.40;99.90
18043;DHT22;9146;48.074;11.968;2022-08-19T09:21:14;18.40;99.90
18043;DHT22;9146;48.074;11.968;2022-08-19T09:23:41;18.40;99.90
18043;DHT22;9146;48.074;11.968;2022-08-19T09:26:10;18.50;99.90
18043;DHT22;9146;48.074;11.968;2022-08-19T09:28:40;18.50;99.90
18043;DHT22;9146;48.074;11.968;2022-08-19T09:31:09;18.70;99.90
18043;DHT22;9146;48.074;11.968;2022-08-19T09:33:36;18.70;99.90
18043;DHT22;9146;48.074;11.968;2022-08-19T09:36:05;18.80;99.90
18043;DHT22;9146;48.074;11.968;2022-08-19T09:38:33;18.80;99.90
18043;DHT22;9146;48.074;11.968;2022-08-19T09:41:04;19.00;99.90
18043;DHT22;9146;48.074;11.968;2022-08-19T09:43:31;19.30;99.90
18043;DHT22;9146;48.074;11.968;2022-08-19T09:46:00;19.50;99.90
18043;DHT22;9146;48.074;11.968;2022-08-19T09:48:27;19.80;99.90
18043;DHT22;9146;48.074;11.968;2022-08-19T09:50:54;20.10;99.90
18043;DHT22;9146;48.074;11.968;2022-08-19T09:53:21;20.30;99.90
18043;DHT22;9146;48.074;11.968;2022-08-19T09:55:48;20.70;99.90
18043;DHT22;9146;48.074;11.968;2022-08-19T09:58:15;21.00;99.90
18043;DHT22;9146;48.074;11.968;2022-08-19T10:00:42;21.30;99.90
18043;DHT22;9146;48.074;11.968;2022-08-19T10:03:12;21.40;99.90
18043;DHT22;9146;48.074;11.968;2022-08-19T10:05:39;21.60;99.90
18043;DHT22;9146;48.074;11.968;2022-08-19T10:08:17;21.50;99.90
18043;DHT22;9146;48.074;11.968;2022-08-19T10:10:44;21.40;99.90
18043;DHT22;9146;48.074;11.968;2022-08-19T10:13:15;21.50;99.90
18043;DHT22;9146;48.074;11.968;2022-08-19T10:15:42;21.50;99.90
18043;DHT22;9146;48.074;11.968;2022-08-19T10:18:09;21.60;99.90
18043;DHT22;9146;48.074;11.968;2022-08-19T10:20:38;21.70;99.90
18043;DHT22;9146;48.074;11.968;2022-08-19T10:23:07;21.80;99.90
18043;DHT22;9146;48.074;11.968;2022-08-19T10:25:34;21.80;99.90
18043;DHT22;9146;48.074;11.968;2022-08-19T10:28:01;21.90;99.90
18043;DHT22;9146;48.074;11.968;2022-08-19T10:30:28;22.10;99.90
18043;DHT22;9146;48.074;11.968;2022-08-19T10:32:55;22.30;99.90
18043;DHT22;9146;48.074;11.968;2022-08-19T10:35:22;22.40;99.90
18043;DHT22;9146;48.074;11.968;2022-08-19T10:37:53;22.50;99.90
18043;DHT22;9146;48.074;11.968;2022-08-19T10:40:21;22.50;99.90
18043;DHT22;9146;48.074;11.968;2022-08-19T10:42:48;22.40;99.90
18043;DHT22;9146;48.074;11.968;2022-08-19T10:45:15;22.30;99.90
18043;DHT22;9146;48.074;11.968;2022-08-19T10:47:43;22.50;99.90
18043;DHT22;9146;48.074;11.968;2022-08-19T10:50:10;22.40;99.90
18043;DHT22;9146;48.074;11.968;2022-08-19T10:52:56;22.40;99.90
18043;DHT22;9146;48.074;11.968;2022-08-19T10:55:24;22.50;99.90
18043;DHT22;9146;48.074;11.968;2022-08-19T10:58:11;22.50;99.90
18043;DHT22;9146;48.074;11.968;2022-08-19T11:00:38;22.70;99.90
18043;DHT22;9146;48.074;11.968;2022-08-19T11:03:06;22.80;99.90
18043;DHT22;9146;48.074;11.968;2022-08-19T11:05:33;23.00;99.90
18043;DHT22;9146;48.074;11.968;2022-08-19T11:08:02;23.00;99.90
18043;DHT22;9146;48.074;11.968;2022-08-19T11:10:29;22.90;99.90
18043;DHT22;9146;48.074;11.968;2022-08-19T11:12:56;22.90;99.90
18043;DHT22;9146;48.074;11.968;2022-08-19T11:15:23;23.00;99.90
18043;DHT22;9146;48.074;11.968;2022-08-19T11:17:51;23.00;99.90
18043;DHT22;9146;48.074;11.968;2022-08-19T11:20:19;22.90;99.90
18043;DHT22;9146;48.074;11.968;2022-08-19T11:22:46;22.80;99.90
18043;DHT22;9146;48.074;11.968;2022-08-19T11:25:15;22.70;99.90
18043;DHT22;9146;48.074;11.968;2022-08-19T11:27:42;22.60;99.90
18043;DHT22;9146;48.074;11.968;2022-08-19T11:30:11;22.60;99.90
18043;DHT22;9146;48.074;11.968;2022-08-19T11:32:38;22.80;99.90
18043;DHT22;9146;48.074;11.968;2022-08-19T11:35:06;23.00;99.90
18043;DHT22;9146;48.074;11.968;2022-08-19T11:37:33;23.40;99.90
18043;DHT22;9146;48.074;11.968;2022-08-19T11:40:03;23.70;99.90
18043;DHT22;9146;48.074;11.968;2022-08-19T11:42:32;23.80;99.90
18043;DHT22;9146;48.074;11.968;2022-08-19T11:45:17;23.70;99.90
18043;DHT22;9146;48.074;11.968;2022-08-19T11:47:44;23.70;99.90
18043;DHT22;9146;48.074;11.968;2022-08-19T11:50:12;23.60;99.90
18043;DHT22;9146;48.074;11.968;2022-08-19T11:52:38;23.30;99.90
18043;DHT22;9146;48.074;11.968;2022-08-19T11:55:07;23.20;99.90
18043;DHT22;9146;48.074;11.968;2022-08-19T11:57:35;23.20;99.90
18043;DHT22;9146;48.074;11.968;2022-08-19T12:00:04;23.30;99.90
18043;DHT22;9146;48.074;11.968;2022-08-19T12:02:31;23.40;99.90
18043;DHT22;9146;48.074;11.968;2022-08-19T12:04:59;23.40;99.90
18043;DHT22;9146;48.074;11.968;2022-08-19T12:07:27;23.60;99.90
18043;DHT22;9146;48.074;11.968;2022-08-19T12:09:54;23.60;99.90
18043;DHT22;9146;48.074;11.968;2022-08-19T12:12:21;23.50;99.90
18043;DHT22;9146;48.074;11.968;2022-08-19T12:14:51;23.50;99.90
18043;DHT22;9146;48.074;11.968;2022-08-19T12:17:22;23.50;99.90
18043;DHT22;9146;48.074;11.968;2022-08-19T12:19:49;23.60;99.90
18043;DHT22;9146;48.074;11.968;2022-08-19T12:22:16;23.70;99.90
18043;DHT22;9146;48.074;11.968;2022-08-19T12:24:43;23.70;99.90
18043;DHT22;9146;48.074;11.968;2022-08-19T12:27:10;23.70;99.90
18043;DHT22;9146;48.074;11.968;2022-08-19T12:29:37;23.70;99.90
18043;DHT22;9146;48.074;11.968;2022-08-19T12:32:06;23.90;99.90
18043;DHT22;9146;48.074;11.968;2022-08-19T12:34:34;23.80;99.90
18043;DHT22;9146;48.074;11.968;2022-08-19T12:37:04;23.60;99.90
18043;DHT22;9146;48.074;11.968;2022-08-19T12:39:34;23.20;99.90
18043;DHT22;9146;48.074;11.968;2022-08-19T12:42:02;23.00;99.90
18043;DHT22;9146;48.074;11.968;2022-08-19T12:44:29;22.80;99.90
18043;DHT22;9146;48.074;11.968;2022-08-19T12:46:56;22.70;99.90
18043;DHT22;9146;48.074;11.968;2022-08-19T12:49:24;22.80;99.90
18043;DHT22;9146;48.074;11.968;2022-08-19T12:51:53;22.90;99.90
18043;DHT22;9146;48.074;11.968;2022-08-19T12:54:20;23.00;99.90
18043;DHT22;9146;48.074;11.968;2022-08-19T12:56:47;23.20;99.90
18043;DHT22;9146;48.074;11.968;2022-08-19T12:59:14;23.20;99.90
18043;DHT22;9146;48.074;11.968;2022-08-19T13:01:43;23.20;99.90
18043;DHT22;9146;48.074;11.968;2022-08-19T13:04:10;23.10;99.90
18043;DHT22;9146;48.074;11.968;2022-08-19T13:06:39;23.10;99.90
18043;DHT22;9146;48.074;11.968;2022-08-19T13:09:06;23.20;99.90
18043;DHT22;9146;48.074;11.968;2022-08-19T13:11:33;23.20;99.90
18043;DHT22;9146;48.074;11.968;2022-08-19T13:14:01;23.40;99.90
18043;DHT22;9146;48.074;11.968;2022-08-19T13:16:29;23.60;99.90
18043;DHT22;9146;48.074;11.968;2022-08-19T13:18:57;23.80;99.90
18043;DHT22;9146;48.074;11.968;2022-08-19T13:21:26;23.70;99.90
18043;DHT22;9146;48.074;11.968;2022-08-19T13:23:57;23.60;99.90
18043;DHT22;9146;48.074;11.968;2022-08-19T13:26:24;23.50;99.90
18043;DHT22;9146;48.074;11.968;2022-08-19T13:28:51;23.40;99.90
18043;DHT22;9146;48.074;11.968;2022-08-19T13:31:38;23.20;99.90
18043;DHT22;9146;48.074;11.968;2022-08-19T13:34:28;23.10;99.90
18043;DHT22;9146;48.074;11.968;2022-08-19T13:36:56;23.10;99.90
18043;DHT22;9146;48.074;11.968;2022-08-19T13:39:24;23.10;99.90
18043;DHT22;9146;48.074;11.968;2022-08-19T13:41:51;23.30;99.90
18043;DHT22;9146;48.074;11.968;2022-08-19T13:44:19;23.30;99.90
18043;DHT22;9146;48.074;11.968;2022-08-19T13:46:47;23.50;99.90
18043;DHT22;9146;48.074;11.968;2022-08-19T13:49:19;23.60;99.90
18043;DHT22;9146;48.074;11.968;2022-08-19T13:51:46;23.80;99.90
18043;DHT22;9146;48.074;11.968;2022-08-19T13:54:13;23.80;99.90
18043;DHT22;9146;48.074;11.968;2022-08-19T13:56:43;23.90;99.90
18043;DHT22;9146;48.074;11.968;2022-08-19T13:59:10;24.00;99.90
18043;DHT22;9146;48.074;11.968;2022-08-19T14:01:38;23.90;99.90
18043;DHT22;9146;48.074;11.968;2022-08-19T14:04:06;23.90;99.90
18043;DHT22;9146;48.074;11.968;2022-08-19T14:06:33;23.80;99.90
18043;DHT22;9146;48.074;11.968;2022-08-19T14:09:01;23.80;99.90
18043;DHT22;9146;48.074;11.968;2022-08-19T14:11:29;23.70;99.90
18043;DHT22;9146;48.074;11.968;2022-08-19T14:13:58;23.70;99.90
18043;DHT22;9146;48.074;11.968;2022-08-19T14:16:25;23.70;99.90
18043;DHT22;9146;48.074;11.968;2022-08-19T14:18:53;23.70;99.90
18043;DHT22;9146;48.074;11.968;2022-08-19T14:21:21;23.60;99.90
18043;DHT22;9146;48.074;11.968;2022-08-19T14:23:49;23.50;99.90
18043;DHT22;9146;48.074;11.968;2022-08-19T14:26:19;23.40;99.90
18043;DHT22;9146;48.074;11.968;2022-08-19T14:28:46;23.40;99.90
18043;DHT22;9146;48.074;11.968;2022-08-19T14:31:17;23.40;99.90
18043;DHT22;9146;48.074;11.968;2022-08-19T14:33:46;23.40;99.90
18043;DHT22;9146;48.074;11.968;2022-08-19T14:36:13;23.20;99.90
18043;DHT22;9146;48.074;11.968;2022-08-19T14:38:40;23.20;99.90
18043;DHT22;9146;48.074;11.968;2022-08-19T14:41:09;23.10;99.90
18043;DHT22;9146;48.074;11.968;2022-08-19T14:43:37;23.10;99.90
18043;DHT22;9146;48.074;11.968;2022-08-19T14:46:05;23.00;99.90
18043;DHT22;9146;48.074;11.968;2022-08-19T14:48:34;22.80;99.90
18043;DHT22;9146;48.074;11.968;2022-08-19T14:51:04;22.70;99.90
18043;DHT22;9146;48.074;11.968;2022-08-19T14:53:31;22.70;99.90
18043;DHT22;9146;48.074;11.968;2022-08-19T14:55:59;22.60;99.90
18043;DHT22;9146;48.074;11.968;2022-08-19T14:58:26;22.40;99.90
18043;DHT22;9146;48.074;11.968;2022-08-19T15:00:53;22.40;99.90
18043;DHT22;9146;48.074;11.968;2022-08-19T15:03:20;22.30;99.90
18043;DHT22;9146;48.074;11.968;2022-08-19T15:05:49;22.30;99.90
18043;DHT22;9146;48.074;11.968;2022-08-19T15:08:16;22.30;99.90
18043;DHT22;9146;48.074;11.968;2022-08-19T15:10:43;22.30;99.90
18043;DHT22;9146;48.074;11.968;2022-08-19T15:13:11;22.20;99.90
18043;DHT22;9146;48.074;11.968;2022-08-19T15:15:38;22.20;99.90
18043;DHT22;9146;48.074;11.968;2022-08-19T15:18:06;22.20;99.90
18043;DHT22;9146;48.074;11.968;2022-08-19T15:20:33;22.10;99.90
18043;DHT22;9146;48.074;11.968;2022-08-19T15:23:01;22.10;99.90
18043;DHT22;9146;48.074;11.968;2022-08-19T15:25:29;22.00;99.90
18043;DHT22;9146;48.074;11.968;2022-08-19T15:27:56;21.90;99.90
18043;DHT22;9146;48.074;11.968;2022-08-19T15:30:24;21.80;99.90
18043;DHT22;9146;48.074;11.968;2022-08-19T15:32:53;21.80;99.90
18043;DHT22;9146;48.074;11.968;2022-08-19T15:35:20;21.60;99.90
18043;DHT22;9146;48.074;11.968;2022-08-19T15:37:48;21.50;99.90
18043;DHT22;9146;48.074;11.968;2022-08-19T15:40:19;21.50;99.90